createdAt,value
2019-03-19T00:01:36.910Z,100924.95
2019-03-19T00:04:07.561Z,100927.80
2019-03-19T00:06:38.745Z,100923.31
2019-03-19T00:09:10.097Z,100933.89
2019-03-19T00:11:40.800Z,100930.97
2019-03-19T00:14:11.531Z,100935.75
2019-03-19T00:16:42.449Z,100940.22
2019-03-19T00:19:13.131Z,100939.13
2019-03-19T00:21:44.157Z,100939.70
2019-03-19T00:24:15.066Z,100944.29
2019-03-19T00:26:45.728Z,100943.77
2019-03-19T00:29:16.637Z,100952.08
2019-03-19T00:31:47.606Z,100952.55
2019-03-19T00:34:18.250Z,100944.28
2019-03-19T00:36:48.923Z,100948.67
2019-03-19T00:39:19.584Z,100947.40
2019-03-19T00:41:50.250Z,100954.24
2019-03-19T00:44:20.928Z,100950.80
2019-03-19T00:46:51.864Z,100949.42
2019-03-19T00:49:22.531Z,100950.84
2019-03-19T00:51:53.459Z,100963.06
2019-03-19T00:54:24.384Z,100957.81
2019-03-19T00:56:55.076Z,100956.02
2019-03-19T00:59:25.723Z,100953.52
2019-03-19T01:01:56.382Z,100956.25
2019-03-19T01:04:27.031Z,100955.59
2019-03-19T01:06:57.961Z,100956.58
2019-03-19T01:09:28.630Z,100962.80
2019-03-19T01:11:59.556Z,100969.67
2019-03-19T01:14:30.231Z,100972.37
2019-03-19T01:17:00.905Z,100970.95
2019-03-19T01:19:31.830Z,100959.11
2019-03-19T01:22:02.780Z,100960.53
2019-03-19T01:24:33.450Z,100953.09
2019-03-19T01:27:04.145Z,100951.48
2019-03-19T01:29:35.055Z,100954.64
2019-03-19T01:32:05.977Z,100948.98
2019-03-19T01:34:37.021Z,100963.36
2019-03-19T01:37:07.704Z,100957.36
2019-03-19T01:39:38.363Z,100953.92
2019-03-19T01:42:09.015Z,100960.25
2019-03-19T01:44:40.083Z,100961.23
2019-03-19T01:47:12.207Z,100963.95
2019-03-19T01:49:42.875Z,100964.59
2019-03-19T01:52:13.539Z,100968.80
2019-03-19T01:54:44.561Z,100968.08
2019-03-19T01:57:15.231Z,100974.98
2019-03-19T01:59:46.024Z,100975.25
2019-03-19T02:02:16.703Z,100980.98
2019-03-19T02:04:47.389Z,100983.32
2019-03-19T02:07:18.061Z,100995.30
2019-03-19T02:09:48.997Z,100984.64
2019-03-19T02:12:19.685Z,100996.22
2019-03-19T02:14:50.718Z,100998.01
2019-03-19T02:17:21.341Z,100996.75
2019-03-19T02:19:52.018Z,101002.13
2019-03-19T02:22:22.739Z,101004.23
2019-03-19T02:24:54.644Z,101009.57
2019-03-19T02:27:25.598Z,101012.81
2019-03-19T02:29:56.538Z,101007.72
2019-03-19T02:32:27.229Z,101012.53
2019-03-19T02:34:57.899Z,101016.42
2019-03-19T02:37:29.121Z,101018.25
2019-03-19T02:39:59.774Z,100991.00
2019-03-19T02:42:30.787Z,101029.00
2019-03-19T02:45:01.690Z,101030.31
2019-03-19T02:47:32.428Z,101027.11
2019-03-19T02:50:03.676Z,101025.32
2019-03-19T02:52:34.346Z,101029.38
2019-03-19T02:55:09.527Z,101032.27
2019-03-19T02:57:40.209Z,101033.93
2019-03-19T03:00:19.285Z,101041.56
2019-03-19T03:02:49.985Z,101045.69
2019-03-19T03:05:24.301Z,101053.14
2019-03-19T03:07:54.995Z,101050.87
2019-03-19T03:10:25.995Z,101052.70
2019-03-19T03:12:56.842Z,101057.26
2019-03-19T03:15:27.510Z,101055.94
2019-03-19T03:17:58.185Z,101064.70
2019-03-19T03:20:28.863Z,101060.99
2019-03-19T03:22:59.534Z,101062.16
2019-03-19T03:25:30.184Z,101069.91
2019-03-19T03:28:00.857Z,101076.73
2019-03-19T03:30:31.524Z,101079.49
2019-03-19T03:33:02.213Z,101085.17
2019-03-19T03:35:32.892Z,101081.70
2019-03-19T03:38:03.559Z,101079.53
2019-03-19T03:40:34.368Z,101072.89
2019-03-19T03:43:05.566Z,101082.95
2019-03-19T03:45:36.231Z,101088.75
2019-03-19T03:48:07.779Z,101089.30
2019-03-19T03:50:40.578Z,101092.78
2019-03-19T03:53:12.675Z,101092.20
2019-03-19T03:55:43.753Z,101093.69
2019-03-19T03:58:14.698Z,101099.69
2019-03-19T04:00:45.655Z,101103.70
2019-03-19T04:03:16.307Z,101096.84
2019-03-19T04:05:46.976Z,101106.29
2019-03-19T04:08:18.043Z,101112.49
2019-03-19T04:10:49.041Z,101111.90
2019-03-19T04:13:19.688Z,101111.90
2019-03-19T04:15:50.362Z,101110.74
2019-03-19T04:18:21.784Z,101111.16
2019-03-19T04:20:52.542Z,101110.28
2019-03-19T04:23:23.254Z,101112.13
2019-03-19T04:25:54.427Z,101124.97
2019-03-19T04:28:25.347Z,101116.98
2019-03-19T04:30:56.283Z,101119.31
2019-03-19T04:33:27.202Z,101126.22
2019-03-19T04:35:57.891Z,101130.56
2019-03-19T04:38:28.521Z,101132.52
2019-03-19T04:40:59.195Z,101130.81
2019-03-19T04:43:29.883Z,101136.83
2019-03-19T04:46:00.837Z,101134.28
2019-03-19T04:48:31.775Z,101135.59
2019-03-19T04:51:02.431Z,101118.28
2019-03-19T04:53:33.125Z,101153.95
2019-03-19T04:56:04.050Z,101152.06
2019-03-19T04:58:35.980Z,101151.56
2019-03-19T05:01:06.634Z,101157.05
2019-03-19T05:03:37.567Z,101157.48
2019-03-19T05:06:08.480Z,101160.85
2019-03-19T05:08:39.409Z,101157.88
2019-03-19T05:11:10.386Z,101169.98
2019-03-19T05:13:41.032Z,101166.88
2019-03-19T05:16:11.972Z,101171.20
2019-03-19T05:18:42.930Z,101172.95
2019-03-19T05:21:13.589Z,101176.61
2019-03-19T05:23:44.527Z,101172.05
2019-03-19T05:26:15.225Z,101178.53
2019-03-19T05:28:46.166Z,101181.47
2019-03-19T05:31:16.831Z,101180.97
2019-03-19T05:33:47.766Z,101176.73
2019-03-19T05:36:18.989Z,101174.36
2019-03-19T05:38:50.631Z,101178.48
2019-03-19T05:41:21.632Z,101185.73
2019-03-19T05:43:52.528Z,101189.39
2019-03-19T05:46:23.231Z,101199.64
2019-03-19T05:48:54.045Z,101178.91
2019-03-19T05:51:24.777Z,101204.97
2019-03-19T05:53:55.686Z,101209.09
2019-03-19T05:56:26.636Z,101211.31
2019-03-19T05:58:57.300Z,101218.47
2019-03-19T06:01:28.284Z,101218.47
2019-03-19T06:03:59.005Z,101220.59
2019-03-19T06:06:30.048Z,101229.03
2019-03-19T06:09:01.067Z,101229.14
2019-03-19T06:11:33.157Z,101231.27
2019-03-19T06:14:04.181Z,101243.92
2019-03-19T06:16:34.887Z,101236.07
2019-03-19T06:19:05.548Z,101235.40
2019-03-19T06:21:36.232Z,101242.25
2019-03-19T06:24:07.217Z,101254.55
2019-03-19T06:26:38.242Z,101245.33
2019-03-19T06:29:08.915Z,101242.11
2019-03-19T06:31:39.588Z,101253.22
2019-03-19T06:34:10.263Z,101256.27
2019-03-19T06:36:41.205Z,101251.88
2019-03-19T06:39:11.875Z,101243.84
2019-03-19T06:41:42.579Z,101250.33
2019-03-19T06:44:13.545Z,101255.81
2019-03-19T06:46:44.214Z,101259.28
2019-03-19T06:49:15.153Z,101263.20
2019-03-19T06:51:48.866Z,101261.41
2019-03-19T06:54:24.503Z,101258.88
2019-03-19T06:56:57.122Z,101261.84
2019-03-19T06:59:27.781Z,101271.25
2019-03-19T07:01:58.487Z,101272.94
2019-03-19T07:04:29.402Z,101275.41
2019-03-19T07:07:00.346Z,101269.64
2019-03-19T07:09:31.566Z,101277.02
2019-03-19T07:12:02.721Z,101284.31
2019-03-19T07:14:33.966Z,101253.08
2019-03-19T07:17:04.674Z,101283.66
2019-03-19T07:19:35.618Z,101289.97
2019-03-19T07:22:06.298Z,101290.39
2019-03-19T07:24:36.996Z,101289.84
2019-03-19T07:27:08.667Z,101300.42
2019-03-19T07:29:39.559Z,101307.58
2019-03-19T07:32:10.634Z,101303.27
2019-03-19T07:34:41.613Z,101305.56
2019-03-19T07:37:12.322Z,101305.73
2019-03-19T07:39:42.984Z,101305.03
2019-03-19T07:42:14.077Z,101303.44
2019-03-19T07:44:45.225Z,101310.38
2019-03-19T07:47:15.920Z,101308.02
2019-03-19T07:49:46.931Z,101305.02
2019-03-19T07:52:18.029Z,101311.06
2019-03-19T07:54:48.749Z,101313.73
2019-03-19T07:57:19.424Z,101310.46
2019-03-19T07:59:50.158Z,101318.20
2019-03-19T08:02:21.130Z,101321.30
2019-03-19T08:04:54.799Z,101323.36
2019-03-19T08:07:25.540Z,101319.69
2019-03-19T08:09:56.224Z,101324.63
2019-03-19T08:12:26.879Z,101327.02
2019-03-19T08:14:57.570Z,101332.08
2019-03-19T08:17:28.219Z,101326.16
2019-03-19T08:19:59.162Z,101332.48
2019-03-19T08:22:30.021Z,101335.72
2019-03-19T08:25:00.886Z,101342.36
2019-03-19T08:27:31.526Z,101342.66
2019-03-19T08:30:02.295Z,101353.31
2019-03-19T08:32:33.347Z,101351.23
2019-03-19T08:35:06.453Z,101359.48
2019-03-19T08:37:37.600Z,101363.74
2019-03-19T08:40:15.846Z,101366.07
2019-03-19T08:42:46.537Z,101380.39
2019-03-19T08:45:23.571Z,101391.23
2019-03-19T08:47:54.272Z,101388.63
2019-03-19T08:50:25.764Z,101410.97
2019-03-19T08:52:56.444Z,101415.03
2019-03-19T08:55:27.220Z,101410.98
2019-03-19T08:57:58.176Z,101411.20
2019-03-19T09:00:29.408Z,101414.29
2019-03-19T09:03:00.071Z,101408.31
2019-03-19T09:05:30.807Z,101413.09
2019-03-19T09:08:01.742Z,101412.12
2019-03-19T09:10:32.667Z,101409.90
2019-03-19T09:13:04.052Z,101415.91
2019-03-19T09:15:34.726Z,101412.09
2019-03-19T09:18:05.521Z,101416.40
2019-03-19T09:20:37.105Z,101419.91
2019-03-19T09:23:07.857Z,101417.20
2019-03-19T09:25:38.907Z,101411.17
2019-03-19T09:28:09.852Z,101409.78
2019-03-19T09:30:40.617Z,101413.69
2019-03-19T09:33:11.609Z,101411.94
2019-03-19T09:35:42.419Z,101419.84
2019-03-19T09:38:13.422Z,101419.28
2019-03-19T09:40:44.100Z,101409.20
2019-03-19T09:43:15.053Z,101408.86
2019-03-19T09:45:46.000Z,101400.72
2019-03-19T09:48:16.721Z,101402.48
2019-03-19T09:50:47.731Z,101406.44
2019-03-19T09:53:18.898Z,101398.85
2019-03-19T09:55:49.781Z,101403.28
2019-03-19T09:58:20.782Z,101402.22
2019-03-19T10:00:51.726Z,101408.86
2019-03-19T10:03:22.731Z,101411.25
2019-03-19T10:05:53.639Z,101407.17
2019-03-19T10:08:24.302Z,101399.32
2019-03-19T10:10:55.004Z,101404.02
2019-03-19T10:13:29.240Z,101399.33
2019-03-19T10:16:00.032Z,101401.66
2019-03-19T10:18:30.774Z,101400.11
2019-03-19T10:21:01.495Z,101404.45
2019-03-19T10:23:32.335Z,101409.52
2019-03-19T10:26:03.364Z,101413.92
2019-03-19T10:28:34.128Z,101418.77
2019-03-19T10:31:05.069Z,101420.08
2019-03-19T10:33:37.082Z,101420.89
2019-03-19T10:36:08.078Z,101420.50
2019-03-19T10:38:39.091Z,101418.55
2019-03-19T10:41:09.817Z,101418.27
2019-03-19T10:43:40.842Z,101409.20
2019-03-19T10:46:11.527Z,101413.86
2019-03-19T10:48:42.516Z,101427.47
2019-03-19T10:51:13.187Z,101423.66
2019-03-19T10:53:44.019Z,101423.50
2019-03-19T10:56:14.980Z,101410.45
2019-03-19T10:58:45.669Z,101414.30
2019-03-19T11:01:16.682Z,101416.86
2019-03-19T11:03:47.731Z,101407.60
2019-03-19T11:06:18.502Z,101418.94
2019-03-19T11:08:49.198Z,101421.50
2019-03-19T11:11:20.139Z,101410.50
2019-03-19T11:13:51.116Z,101397.14
2019-03-19T11:16:22.086Z,101403.98
2019-03-19T11:18:53.050Z,101409.34
2019-03-19T11:21:23.733Z,101402.61
2019-03-19T11:23:54.701Z,101405.16
2019-03-19T11:26:25.959Z,101397.91
2019-03-19T11:28:57.002Z,101403.13
2019-03-19T11:31:27.783Z,101396.89
2019-03-19T11:33:58.755Z,101393.88
2019-03-19T11:36:29.526Z,101403.91
2019-03-19T11:39:00.192Z,101399.32
2019-03-19T11:41:30.905Z,101402.20
2019-03-19T11:44:01.557Z,101405.96
2019-03-19T11:46:32.313Z,101400.70
2019-03-19T11:49:03.285Z,101404.20
2019-03-19T11:51:34.308Z,101396.59
2019-03-19T11:54:05.357Z,101396.52
2019-03-19T11:56:36.362Z,101394.69
2019-03-19T11:59:07.042Z,101391.19
2019-03-19T12:01:37.982Z,101391.72
2019-03-19T12:04:08.699Z,101392.38
2019-03-19T12:06:39.639Z,101392.08
2019-03-19T12:09:10.719Z,101399.13
2019-03-19T12:11:41.389Z,101399.16
2019-03-19T12:14:12.299Z,101393.11
2019-03-19T12:16:43.389Z,101394.86
2019-03-19T12:19:14.140Z,101389.70
2019-03-19T12:21:44.822Z,101398.37
2019-03-19T12:24:15.467Z,101387.81
2019-03-19T12:26:46.580Z,101389.34
2019-03-19T12:29:17.697Z,101391.53
2019-03-19T12:31:48.450Z,101389.17
2019-03-19T12:34:19.385Z,101394.70
2019-03-19T12:36:50.362Z,101389.33
2019-03-19T12:39:21.324Z,101388.02
2019-03-19T12:41:52.013Z,101397.16
2019-03-19T12:44:22.731Z,101397.89
2019-03-19T12:46:53.402Z,101406.20
2019-03-19T12:49:24.099Z,101403.11
2019-03-19T12:51:54.930Z,101408.62
2019-03-19T12:54:25.884Z,101415.53
2019-03-19T12:56:56.555Z,101391.81
2019-03-19T12:59:27.231Z,101407.56
2019-03-19T13:01:58.209Z,101402.66
2019-03-19T13:04:31.751Z,101399.13
2019-03-19T13:07:01.510Z,101393.61
2019-03-19T13:09:33.112Z,101399.73
2019-03-19T13:12:04.219Z,101405.77
2019-03-19T13:14:35.193Z,101407.89
2019-03-19T13:17:06.038Z,101409.58
2019-03-19T13:19:37.031Z,101413.91
2019-03-19T13:22:08.377Z,101425.25
2019-03-19T13:24:39.048Z,101427.20
2019-03-19T13:27:09.759Z,101431.58
2019-03-19T13:29:40.449Z,101431.08
2019-03-19T13:32:11.100Z,101434.45
2019-03-19T13:34:42.057Z,101438.09
2019-03-19T13:37:12.708Z,101437.35
2019-03-19T13:39:43.707Z,101433.73
2019-03-19T13:42:14.733Z,101436.70
2019-03-19T13:44:45.919Z,101439.79
2019-03-19T13:47:16.950Z,101440.84
2019-03-19T13:49:47.657Z,101438.42
2019-03-19T13:52:18.396Z,101434.13
2019-03-19T13:54:49.121Z,101434.82
2019-03-19T13:57:19.819Z,101415.99
2019-03-19T13:59:50.508Z,101433.16
2019-03-19T14:02:21.536Z,101437.92
2019-03-19T14:04:52.285Z,101439.84
2019-03-19T14:07:22.961Z,101436.95
2019-03-19T14:09:53.935Z,101436.56
2019-03-19T14:12:24.591Z,101432.57
2019-03-19T14:14:55.708Z,101434.75
2019-03-19T14:17:26.421Z,101439.95
2019-03-19T14:19:57.162Z,101440.35
2019-03-19T14:22:27.869Z,101446.03
2019-03-19T14:24:59.537Z,101441.17
2019-03-19T14:27:30.627Z,101449.65
2019-03-19T14:30:01.311Z,101456.66
2019-03-19T14:32:32.110Z,101453.92
2019-03-19T14:35:02.775Z,101451.61
2019-03-19T14:37:34.423Z,101456.81
2019-03-19T14:40:09.856Z,101449.32
2019-03-19T14:42:40.568Z,101452.30
2019-03-19T14:45:11.992Z,101461.91
2019-03-19T14:47:42.735Z,101475.54
2019-03-19T14:50:16.042Z,101474.91
2019-03-19T14:52:47.019Z,101476.78
2019-03-19T14:55:18.046Z,101475.33
2019-03-19T14:57:51.037Z,101469.54
2019-03-19T15:00:23.431Z,101477.64
2019-03-19T15:02:54.139Z,101483.11
2019-03-19T15:05:24.796Z,101487.05
2019-03-19T15:07:55.733Z,101491.45
2019-03-19T15:10:26.667Z,101494.05
2019-03-19T15:12:57.615Z,101489.47
2019-03-19T15:15:28.695Z,101491.30
2019-03-19T15:17:59.668Z,101490.02
2019-03-19T15:20:30.340Z,101493.14
2019-03-19T15:23:01.208Z,101498.17
2019-03-19T15:25:32.170Z,101503.09
2019-03-19T15:28:03.242Z,101494.05
2019-03-19T15:30:35.164Z,101500.54
2019-03-19T15:33:06.164Z,101502.70
2019-03-19T15:35:36.915Z,101497.50
2019-03-19T15:38:07.593Z,101496.83
2019-03-19T15:40:38.540Z,101501.95
2019-03-19T15:43:09.209Z,101500.11
2019-03-19T15:45:39.866Z,101501.78
2019-03-19T15:48:10.531Z,101506.42
2019-03-19T15:50:41.469Z,101515.37
2019-03-19T15:53:12.220Z,101514.75
2019-03-19T15:56:22.178Z,101514.38
2019-03-19T15:58:53.196Z,101515.17
2019-03-19T16:01:23.873Z,101517.17
2019-03-19T16:03:54.547Z,101519.53
2019-03-19T16:06:25.603Z,101522.80
2019-03-19T16:08:56.299Z,101525.12
2019-03-19T16:11:27.267Z,101529.38
2019-03-19T16:13:58.316Z,101533.83
2019-03-19T16:16:28.984Z,101537.63
2019-03-19T16:18:59.682Z,101535.45
2019-03-19T16:21:30.605Z,101538.70
2019-03-19T16:24:01.382Z,101532.12
2019-03-19T16:26:32.374Z,101553.61
2019-03-19T16:29:03.277Z,101556.20
2019-03-19T16:31:33.958Z,101560.73
2019-03-19T16:34:04.776Z,101563.06
2019-03-19T16:36:35.727Z,101560.09
2019-03-19T16:39:08.035Z,101561.30
2019-03-19T16:41:39.031Z,101573.77
2019-03-19T16:44:10.066Z,101569.95
2019-03-19T16:46:40.730Z,101571.41
2019-03-19T16:49:11.698Z,101577.11
2019-03-19T16:51:42.396Z,101574.71
2019-03-19T16:54:13.091Z,101589.13
2019-03-19T16:56:43.765Z,101592.68
2019-03-19T16:59:14.769Z,101590.13
2019-03-19T17:01:45.440Z,101597.09
2019-03-19T17:04:16.469Z,101601.45
2019-03-19T17:06:47.612Z,101601.60
2019-03-19T17:09:18.344Z,101603.53
2019-03-19T17:11:49.386Z,101608.39
2019-03-19T17:14:20.407Z,101616.19
2019-03-19T17:16:51.073Z,101614.61
2019-03-19T17:19:22.083Z,101620.86
2019-03-19T17:21:52.728Z,101615.78
2019-03-19T17:24:23.693Z,101616.00
2019-03-19T17:26:54.681Z,101617.73
2019-03-19T17:29:25.369Z,101619.13
2019-03-19T17:31:57.374Z,101618.50
2019-03-19T17:34:28.314Z,101627.39
2019-03-19T17:36:59.134Z,101636.60
2019-03-19T17:39:30.084Z,101633.92
2019-03-19T17:42:00.981Z,101633.86
2019-03-19T17:44:32.000Z,101639.43
2019-03-19T17:47:02.681Z,101646.00
2019-03-19T17:49:33.640Z,101647.80
2019-03-19T17:52:04.690Z,101652.46
2019-03-19T17:54:35.369Z,101656.06
2019-03-19T17:57:06.341Z,101663.10
2019-03-19T17:59:37.399Z,101666.03
2019-03-19T18:02:08.054Z,101675.15
2019-03-19T18:04:39.064Z,101668.41
2019-03-19T18:07:09.711Z,101666.36
2019-03-19T18:09:40.390Z,101680.16
2019-03-19T18:12:11.037Z,101681.08
2019-03-19T18:14:42.203Z,101682.79
2019-03-19T18:17:12.870Z,101687.80
2019-03-19T18:19:44.571Z,101692.13
2019-03-19T18:22:15.533Z,101689.56
2019-03-19T18:24:46.554Z,101687.29
2019-03-19T18:27:18.539Z,101693.78
2019-03-19T18:29:49.564Z,101694.38
2019-03-19T18:32:20.312Z,101707.30
2019-03-19T18:34:51.324Z,101703.20
2019-03-19T18:37:22.392Z,101705.68
2019-03-19T18:39:53.086Z,101707.00
2019-03-19T18:42:23.741Z,101705.34
2019-03-19T18:44:54.532Z,101710.12
2019-03-19T18:47:25.222Z,101708.93
2019-03-19T18:49:56.198Z,101714.10
2019-03-19T18:52:26.866Z,101716.92
2019-03-19T18:54:57.955Z,101728.37
2019-03-19T18:57:28.942Z,101724.05
2019-03-19T19:00:00.161Z,101730.33
2019-03-19T19:02:31.230Z,101728.84
2019-03-19T19:05:01.912Z,101722.52
2019-03-19T19:07:32.797Z,101729.82
2019-03-19T19:10:04.756Z,101734.31
2019-03-19T19:12:35.486Z,101732.94
2019-03-19T19:15:14.213Z,101739.18
2019-03-19T19:17:45.256Z,101736.88
2019-03-19T19:20:19.883Z,101736.70
2019-03-19T19:22:50.858Z,101740.63
2019-03-19T19:25:26.658Z,101745.41
2019-03-19T19:27:57.383Z,101753.02
2019-03-19T19:30:30.908Z,101754.86
2019-03-19T19:33:02.714Z,101751.52
2019-03-19T19:35:34.027Z,101756.95
2019-03-19T19:38:04.694Z,101756.53
2019-03-19T19:40:35.413Z,101761.83
2019-03-19T19:43:06.124Z,101759.94
2019-03-19T19:45:37.256Z,101767.33
2019-03-19T19:48:08.180Z,101767.89
2019-03-19T19:50:38.867Z,101769.09
2019-03-19T19:53:09.860Z,101769.09
2019-03-19T19:55:40.899Z,101774.52
2019-03-19T19:58:11.954Z,101759.00
2019-03-19T20:00:43.009Z,101768.11
2019-03-19T20:03:13.695Z,101771.41
2019-03-19T20:05:44.616Z,101768.75
2019-03-19T20:08:15.694Z,101779.13
2019-03-19T20:10:46.366Z,101778.53
2019-03-19T20:15:40.603Z,101781.66
2019-03-19T20:18:11.693Z,101790.08
2019-03-19T20:20:42.689Z,101785.08
2019-03-19T20:23:13.737Z,101784.48
2019-03-19T20:25:44.770Z,101792.76
2019-03-19T20:28:15.419Z,101789.95
2019-03-19T20:30:46.173Z,101790.45
2019-03-19T20:33:24.856Z,101791.11
2019-03-19T20:35:50.064Z,101781.19
2019-03-19T20:38:22.132Z,101790.11
2019-03-19T20:40:52.832Z,101794.22
2019-03-19T20:43:23.667Z,101798.32
2019-03-19T20:45:54.383Z,101799.47
2019-03-19T20:48:25.081Z,101795.23
2019-03-19T20:50:57.217Z,101797.64
2019-03-19T20:53:28.259Z,101795.92
2019-03-19T20:55:58.907Z,101805.84
2019-03-19T20:58:29.866Z,101810.12
2019-03-19T21:01:00.863Z,101816.02
2019-03-19T21:03:36.121Z,101817.42
2019-03-19T21:06:04.559Z,101820.25
2019-03-19T21:08:35.517Z,101815.33
2019-03-19T21:11:06.354Z,101817.58
2019-03-19T21:13:37.030Z,101826.78
2019-03-19T21:16:08.027Z,101830.55
2019-03-19T21:18:38.963Z,101834.34
2019-03-19T21:21:10.112Z,101833.80
2019-03-19T21:23:41.037Z,101833.53
2019-03-19T21:26:11.746Z,101838.00
2019-03-19T21:28:42.724Z,101833.84
2019-03-19T21:31:13.411Z,101831.84
2019-03-19T21:33:51.141Z,101839.00
2019-03-19T21:36:17.914Z,101834.26
2019-03-19T21:38:48.604Z,101837.27
2019-03-19T21:41:19.555Z,101838.00
2019-03-19T21:43:50.616Z,101837.44
2019-03-19T21:46:21.557Z,101840.44
2019-03-19T21:48:52.565Z,101843.23
2019-03-19T21:51:23.504Z,101845.59
2019-03-19T21:53:54.237Z,101855.64
2019-03-19T21:56:25.180Z,101855.06
2019-03-19T21:58:56.165Z,101861.45
2019-03-19T22:01:26.912Z,101866.30
2019-03-19T22:04:03.136Z,101853.24
2019-03-19T22:06:30.358Z,101860.72
2019-03-19T22:09:01.011Z,101866.39
2019-03-19T22:11:33.669Z,101867.89
2019-03-19T22:14:04.403Z,101867.18
2019-03-19T22:16:35.451Z,101867.73
2019-03-19T22:19:06.620Z,101864.02
2019-03-19T22:21:37.305Z,101861.45
2019-03-19T22:24:08.035Z,101867.66
2019-03-19T22:26:38.711Z,101870.02
2019-03-19T22:29:09.408Z,101869.08
2019-03-19T22:31:40.065Z,101871.34
2019-03-19T22:34:14.366Z,101825.61
2019-03-19T22:36:43.966Z,101871.55
2019-03-19T22:39:15.026Z,101870.03
2019-03-19T22:41:45.952Z,101871.63
2019-03-19T22:44:16.702Z,101870.97
2019-03-19T22:46:47.614Z,101875.88
2019-03-19T22:49:18.353Z,101880.91
2019-03-19T22:51:50.023Z,101874.75
2019-03-19T22:54:21.869Z,101880.25
2019-03-19T22:56:52.552Z,101880.91
2019-03-19T22:59:23.239Z,101886.87
2019-03-19T23:01:54.028Z,101881.77
2019-03-19T23:04:27.428Z,101889.72
2019-03-19T23:06:57.341Z,101889.33
2019-03-19T23:09:28.330Z,101885.36
2019-03-19T23:11:59.344Z,101889.41
2019-03-19T23:14:30.286Z,101895.76
2019-03-19T23:17:00.956Z,101894.43
2019-03-19T23:19:31.887Z,101903.69
2019-03-19T23:22:02.642Z,101901.91
2019-03-19T23:24:34.953Z,101904.37
2019-03-19T23:27:06.667Z,101909.55
2019-03-19T23:29:37.324Z,101911.33
2019-03-19T23:32:08.144Z,101911.06
2019-03-19T23:34:38.966Z,101909.59
2019-03-19T23:37:09.941Z,101912.81
2019-03-19T23:39:40.957Z,101912.15
2019-03-19T23:42:11.925Z,101912.70
2019-03-19T23:44:42.597Z,101916.27
2019-03-19T23:47:13.565Z,101914.59
2019-03-19T23:49:44.232Z,101917.40
2019-03-19T23:52:14.914Z,101919.11
2019-03-19T23:54:45.815Z,101920.24
2019-03-19T23:57:16.759Z,101924.41
2019-03-19T23:59:47.742Z,101919.22
